Time;durP1;ratioP1;P1;durP2;ratioP2;P2;SDS_P1;SDS_P2;PMS_P1;PMS_P2;Temp;Humidity;BMP_temperature;BMP_pressure;BME280_temperature;BME280_humidity;BME280_pressure;Samples;Min_cycle;Max_cycle;Signal;HPM_P1;HPM_P2
2022/09/07 00:01:50;;;;;;;;;;;;;;;;;;5049273;28;19952;-50
2022/09/07 00:04:16;;;;;;;;;;;;;;;;;;5053580;28;20103;-53
2022/09/07 00:06:41;;;;;;;;;;;;;;;;;;5059017;28;19943;-54
2022/09/07 00:09:07;;;;;;;;;;;;;;;;;;5052277;28;20011;-55
2022/09/07 00:11:32;;;;;;;;;;;;;;;;;;5059010;28;19924;-55
2022/09/07 00:13:57;;;;;;;;;;;;;;;;;;5051264;28;19962;-55
2022/09/07 00:16:22;;;;;;;;;;;;;;;;;;5054346;28;20356;-56
2022/09/07 00:18:48;;;;;;;;;;;;;;;;;;5062412;28;19921;-56
2022/09/07 00:21:13;;;;;;;;;;;;;;;;;;5056285;28;19916;-56
2022/09/07 00:23:38;;;;;;;;;;;;;;;;;;5060594;28;21819;-56
2022/09/07 00:26:03;;;;;;;;;;;;;;;;;;5053438;28;20554;-55
2022/09/07 00:28:28;;;;;;;;;;;;;;;;;;5052587;28;19924;-56
2022/09/07 00:30:54;;;;;;;;;;;;;;;;;;5059231;28;20289;-56
2022/09/07 00:33:19;;;;;;;;;;;;;;;;;;5053290;28;19917;-56
2022/09/07 00:35:45;;;;;;;;;;;;;;;;;;5060583;28;19921;-52
2022/09/07 00:38:10;;;;;;;;;;;;;;;;;;5053292;28;19924;-57
2022/09/07 00:40:35;;;;;;;;;;;;;;;;;;5055449;28;20531;-57
2022/09/07 00:43:00;;;;;;;;;;;;;;;;;;5076123;28;19927;-58
2022/09/07 00:45:26;;;;;;;;;;;;;;;;;;5054958;28;19916;-55
2022/09/07 00:47:51;;;;;;;;;;;;;;;;;;5061368;28;19912;-55
2022/09/07 00:50:16;;;;;;;;;;;;;;;;;;5055223;28;19960;-57
2022/09/07 00:52:41;;;;;;;;;;;;;;;;;;5054170;28;19921;-56
2022/09/07 00:55:07;;;;;;;;;;;;;;;;;;5058357;28;19926;-55
2022/09/07 00:57:32;;;;;;;;;;;;;;;;;;5053470;28;19923;-56
2022/09/07 00:59:57;;;;;;;;;;;;;;;;;;5059142;28;19931;-53
2022/09/07 01:02:22;;;;;;;;;;;;;;;;;;5054537;28;19924;-56
2022/09/07 01:04:48;;;;;;;;;;;;;;;;;;5053563;28;19916;-55
2022/09/07 01:07:13;;;;;;;;;;;;;;;;;;5057819;28;19920;-54
2022/09/07 01:09:38;;;;;;;;;;;;;;;;;;5054725;28;19916;-53
2022/09/07 01:12:03;;;;;;;;;;;;;;;;;;5059810;28;20015;-57
2022/09/07 01:14:28;;;;;;;;;;;;;;;;;;5049951;28;19917;-56
2022/09/07 01:16:54;;;;;;;;;;;;;;;;;;5052685;28;20376;-56
2022/09/07 01:19:21;;;;;;;;;;;;;;;;;;5059176;28;21292;-56
2022/09/07 01:21:46;;;;;;;;;;;;;;;;;;5052785;28;20094;-52
2022/09/07 01:24:11;;;;;;;;;;;;;;;;;;5060411;28;19923;-55
2022/09/07 01:26:37;;;;;;;;;;;;;;;;;;5052415;28;19923;-55
2022/09/07 01:29:02;;;;;;;;;;;;;;;;;;5053659;28;19916;-56
2022/09/07 01:31:27;;;;;;;;;;;;;;;;;;5058839;28;19917;-56
2022/09/07 01:33:53;;;;;;;;;;;;;;;;;;5053666;28;20035;-54
2022/09/07 01:36:18;;;;;;;;;;;;;;;;;;5062022;28;19920;-56
2022/09/07 01:38:43;;;;;;;;;;;;;;;;;;5049872;28;19927;-53
2022/09/07 01:41:08;;;;;;;;;;;;;;;;;;5054318;28;19924;-57
2022/09/07 01:43:34;;;;;;;;;;;;;;;;;;5059322;28;20444;-53
2022/09/07 01:45:59;;;;;;;;;;;;;;;;;;5054407;28;20348;-57
2022/09/07 01:48:24;;;;;;;;;;;;;;;;;;5059535;28;19916;-56
2022/09/07 01:50:49;;;;;;;;;;;;;;;;;;5052146;28;19917;-55
2022/09/07 01:53:14;;;;;;;;;;;;;;;;;;5054243;28;19924;-54
2022/09/07 01:55:40;;;;;;;;;;;;;;;;;;5058616;28;19923;-56
2022/09/07 01:58:05;;;;;;;;;;;;;;;;;;5054349;28;19921;-53
2022/09/07 02:00:30;;;;;;;;;;;;;;;;;;5059211;28;19982;-54
2022/09/07 02:02:55;;;;;;;;;;;;;;;;;;5053733;28;19923;-56
2022/09/07 02:05:21;;;;;;;;;;;;;;;;;;5050608;28;19916;-53
2022/09/07 02:07:46;;;;;;;;;;;;;;;;;;5056959;28;19948;-56
2022/09/07 02:10:11;;;;;;;;;;;;;;;;;;5051923;28;19917;-56
2022/09/07 02:12:36;;;;;;;;;;;;;;;;;;5058441;28;19921;-56
2022/09/07 02:15:01;;;;;;;;;;;;;;;;;;5049725;28;19916;-56
2022/09/07 02:17:27;;;;;;;;;;;;;;;;;;5051386;28;20198;-57
2022/09/07 02:19:52;;;;;;;;;;;;;;;;;;5058185;28;19931;-54
2022/09/07 02:22:17;;;;;;;;;;;;;;;;;;5054332;28;19932;-55
2022/09/07 02:24:43;;;;;;;;;;;;;;;;;;5055839;28;19997;-56
2022/09/07 02:27:08;;;;;;;;;;;;;;;;;;5053263;28;19916;-54
2022/09/07 02:29:34;;;;;;;;;;;;;;;;;;5053199;28;19913;-55
2022/09/07 02:31:59;;;;;;;;;;;;;;;;;;5056919;28;20025;-55
2022/09/07 02:34:24;;;;;;;;;;;;;;;;;;5052441;28;20113;-55
2022/09/07 02:36:49;;;;;;;;;;;;;;;;;;5057889;28;19917;-55
2022/09/07 02:39:15;;;;;;;;;;;;;;;;;;5054306;28;19932;-57
2022/09/07 02:41:40;;;;;;;;;;;;;;;;;;5051025;28;19913;-52
2022/09/07 02:44:06;;;;;;;;;;;;;;;;;;5076362;28;19917;-56
2022/09/07 02:46:31;;;;;;;;;;;;;;;;;;5052759;28;19916;-54
2022/09/07 02:48:56;;;;;;;;;;;;;;;;;;5059164;28;20385;-57
2022/09/07 02:51:22;;;;;;;;;;;;;;;;;;5070369;28;20327;-56
2022/09/07 02:53:47;;;;;;;;;;;;;;;;;;5052309;28;19931;-56
2022/09/07 02:56:12;;;;;;;;;;;;;;;;;;5058554;28;19923;-54
2022/09/07 02:58:37;;;;;;;;;;;;;;;;;;5052552;28;20370;-55
2022/09/07 03:01:03;;;;;;;;;;;;;;;;;;5057983;28;19931;-53
2022/09/07 03:03:28;;;;;;;;;;;;;;;;;;5052807;28;19923;-58
2022/09/07 03:05:53;;;;;;;;;;;;;;;;;;5051282;28;19924;-57
2022/09/07 03:08:18;;;;;;;;;;;;;;;;;;5059480;28;20111;-51
2022/09/07 03:10:44;;;;;;;;;;;;;;;;;;5052320;28;19944;-56
2022/09/07 03:13:09;;;;;;;;;;;;;;;;;;5058425;28;20258;-53
2022/09/07 03:15:34;;;;;;;;;;;;;;;;;;5051340;28;20684;-58
2022/09/07 03:17:59;;;;;;;;;;;;;;;;;;5052379;28;19989;-57
2022/09/07 03:20:24;;;;;;;;;;;;;;;;;;5059193;28;19931;-57
2022/09/07 03:22:50;;;;;;;;;;;;;;;;;;5050672;28;19927;-53
2022/09/07 03:25:15;;;;;;;;;;;;;;;;;;5057101;28;20049;-55
2022/09/07 03:27:40;;;;;;;;;;;;;;;;;;5052939;28;19960;-58
2022/09/07 03:30:05;;;;;;;;;;;;;;;;;;5053664;28;19916;-54
2022/09/07 03:32:31;;;;;;;;;;;;;;;;;;5060908;28;19991;-56
2022/09/07 03:34:56;;;;;;;;;;;;;;;;;;5054487;28;19920;-56
2022/09/07 03:37:21;;;;;;;;;;;;;;;;;;5061518;28;20309;-57
2022/09/07 03:39:46;;;;;;;;;;;;;;;;;;5055044;28;19963;-57
2022/09/07 03:42:12;;;;;;;;;;;;;;;;;;5055136;28;19969;-57
2022/09/07 03:44:37;;;;;;;;;;;;;;;;;;5061742;28;19916;-56
2022/09/07 03:47:02;;;;;;;;;;;;;;;;;;5055797;28;19959;-56
2022/09/07 03:49:27;;;;;;;;;;;;;;;;;;5063602;28;20014;-52
2022/09/07 03:51:52;;;;;;;;;;;;;;;;;;5052710;28;20019;-56
2022/09/07 03:54:18;;;;;;;;;;;;;;;;;;5053501;28;19966;-56
2022/09/07 03:56:43;;;;;;;;;;;;;;;;;;5061241;28;19916;-54
2022/09/07 03:59:08;;;;;;;;;;;;;;;;;;5054922;28;19925;-52
2022/09/07 04:01:33;;;;;;;;;;;;;;;;;;5061197;28;20304;-56
2022/09/07 04:04:01;;;;;;;;;;;;;;;;;;5054753;28;20280;-56
2022/09/07 04:06:26;;;;;;;;;;;;;;;;;;5055247;28;19920;-50
2022/09/07 04:08:51;;;;;;;;;;;;;;;;;;5060407;28;20492;-56
2022/09/07 04:11:16;;;;;;;;;;;;;;;;;;5054775;28;19924;-56
2022/09/07 04:13:42;;;;;;;;;;;;;;;;;;5060384;28;19928;-55
2022/09/07 04:16:07;;;;;;;;;;;;;;;;;;5055603;28;20325;-53
2022/09/07 04:18:32;;;;;;;;;;;;;;;;;;5055928;28;20719;-52
2022/09/07 04:20:57;;;;;;;;;;;;;;;;;;5061985;28;20327;-56
2022/09/07 04:23:22;;;;;;;;;;;;;;;;;;5071297;28;19916;-57
2022/09/07 04:25:48;;;;;;;;;;;;;;;;;;5061125;28;20361;-56
2022/09/07 04:28:13;;;;;;;;;;;;;;;;;;5053624;28;19917;-53
2022/09/07 04:30:38;;;;;;;;;;;;;;;;;;5053609;28;20528;-50
2022/09/07 04:33:03;;;;;;;;;;;;;;;;;;5058502;28;20030;-54
2022/09/07 04:35:29;;;;;;;;;;;;;;;;;;5052254;28;19956;-57
2022/09/07 04:37:54;;;;;;;;;;;;;;;;;;5060468;28;20003;-57
2022/09/07 04:40:19;;;;;;;;;;;;;;;;;;5053302;28;19935;-54
2022/09/07 04:42:45;;;;;;;;;;;;;;;;;;5053616;28;19921;-54
2022/09/07 04:45:10;;;;;;;;;;;;;;;;;;5058470;28;19923;-55
2022/09/07 04:47:35;;;;;;;;;;;;;;;;;;5055025;28;19920;-58
2022/09/07 04:50:00;;;;;;;;;;;;;;;;;;5061117;28;19927;-54
2022/09/07 04:52:26;;;;;;;;;;;;;;;;;;5055187;28;19922;-56
2022/09/07 04:54:51;;;;;;;;;;;;;;;;;;5053143;28;20249;-57
2022/09/07 04:57:17;;;;;;;;;;;;;;;;;;5060737;28;20356;-56
2022/09/07 04:59:42;;;;;;;;;;;;;;;;;;5052218;28;19925;-52
2022/09/07 05:02:07;;;;;;;;;;;;;;;;;;5057713;28;19928;-56
2022/09/07 05:04:32;;;;;;;;;;;;;;;;;;5048980;28;19932;-53
2022/09/07 05:06:58;;;;;;;;;;;;;;;;;;5049806;28;19916;-57
2022/09/07 05:09:23;;;;;;;;;;;;;;;;;;5057612;28;20361;-53
2022/09/07 05:11:48;;;;;;;;;;;;;;;;;;5051044;28;19921;-55
2022/09/07 05:14:13;;;;;;;;;;;;;;;;;;5056301;28;19916;-53
2022/09/07 05:16:38;;;;;;;;;;;;;;;;;;5050854;28;19943;-55
2022/09/07 05:19:04;;;;;;;;;;;;;;;;;;5068999;28;20804;-54
2022/09/07 05:21:29;;;;;;;;;;;;;;;;;;5059555;28;20371;-53
2022/09/07 05:23:54;;;;;;;;;;;;;;;;;;5051048;28;19916;-54
2022/09/07 05:26:19;;;;;;;;;;;;;;;;;;5058778;28;19924;-53
2022/09/07 05:28:45;;;;;;;;;;;;;;;;;;5052207;28;19916;-57
2022/09/07 05:31:10;;;;;;;;;;;;;;;;;;5053462;28;19978;-54
2022/09/07 05:33:35;;;;;;;;;;;;;;;;;;5061439;28;20136;-56
2022/09/07 05:36:01;;;;;;;;;;;;;;;;;;5068170;28;19921;-55
2022/09/07 05:38:26;;;;;;;;;;;;;;;;;;5060707;28;19962;-58
2022/09/07 05:40:51;;;;;;;;;;;;;;;;;;5048489;28;21227;-56
2022/09/07 05:43:17;;;;;;;;;;;;;;;;;;5052550;28;19982;-56
2022/09/07 05:45:42;;;;;;;;;;;;;;;;;;5058912;28;19916;-55
2022/09/07 05:48:07;;;;;;;;;;;;;;;;;;5062566;28;20327;-54
2022/09/07 05:50:32;;;;;;;;;;;;;;;;;;5060619;28;19917;-57
2022/09/07 05:52:58;;;;;;;;;;;;;;;;;;5061607;28;20377;-52
2022/09/07 05:55:23;;;;;;;;;;;;;;;;;;5059349;28;20395;-54
2022/09/07 05:57:48;;;;;;;;;;;;;;;;;;5061152;28;20292;-50
2022/09/07 06:00:13;;;;;;;;;;;;;;;;;;5062651;28;19925;-57
2022/09/07 06:02:39;;;;;;;;;;;;;;;;;;5059424;28;19917;-54
2022/09/07 06:05:05;;;;;;;;;;;;;;;;;;5063471;28;20304;-54
2022/09/07 06:07:30;;;;;;;;;;;;;;;;;;5062541;28;20284;-54
2022/09/07 06:09:55;;;;;;;;;;;;;;;;;;5062152;28;19935;-52
2022/09/07 06:12:21;;;;;;;;;;;;;;;;;;5065249;28;19928;-54
2022/09/07 06:14:46;;;;;;;;;;;;;;;;;;5065410;28;19948;-54
2022/09/07 06:17:11;;;;;;;;;;;;;;;;;;5066376;28;20433;-54
2022/09/07 06:19:36;;;;;;;;;;;;;;;;;;5065420;28;20012;-53
2022/09/07 06:22:02;;;;;;;;;;;;;;;;;;5067045;28;19916;-53
2022/09/07 06:24:27;;;;;;;;;;;;;;;;;;5066312;28;20011;-53
2022/09/07 06:26:52;;;;;;;;;;;;;;;;;;5067335;28;20003;-56
2022/09/07 06:29:17;;;;;;;;;;;;;;;;;;5064950;28;19969;-53
2022/09/07 06:31:43;;;;;;;;;;;;;;;;;;5065817;28;19927;-53
2022/09/07 06:34:08;;;;;;;;;;;;;;;;;;5065822;28;20396;-55
2022/09/07 06:36:33;;;;;;;;;;;;;;;;;;5064446;28;19920;-54
2022/09/07 06:39:00;;;;;;;;;;;;;;;;;;5063647;28;19991;-53
2022/09/07 06:41:27;;;;;;;;;;;;;;;;;;5063494;28;20381;-55
2022/09/07 06:43:52;;;;;;;;;;;;;;;;;;5057963;28;19923;-54
2022/09/07 06:46:17;;;;;;;;;;;;;;;;;;5057769;28;19917;-56
2022/09/07 06:48:43;;;;;;;;;;;;;;;;;;5057250;28;19923;-54
2022/09/07 06:51:08;;;;;;;;;;;;;;;;;;5058531;28;19928;-58
2022/09/07 06:53:33;;;;;;;;;;;;;;;;;;5063646;28;19917;-55
2022/09/07 06:55:58;;;;;;;;;;;;;;;;;;5063524;28;19916;-54
2022/09/07 06:58:24;;;;;;;;;;;;;;;;;;5062213;28;19924;-54
2022/09/07 07:00:49;;;;;;;;;;;;;;;;;;5062271;28;19920;-54
2022/09/07 07:03:15;;;;;;;;;;;;;;;;;;5066289;28;19912;-56
2022/09/07 07:05:40;;;;;;;;;;;;;;;;;;5067261;28;19917;-56
2022/09/07 07:08:05;;;;;;;;;;;;;;;;;;5068121;28;19920;-56
2022/09/07 07:10:30;;;;;;;;;;;;;;;;;;5068608;28;19917;-56
2022/09/07 07:12:56;;;;;;;;;;;;;;;;;;5066979;28;19924;-57
2022/09/07 07:15:21;;;;;;;;;;;;;;;;;;5067751;28;19917;-57
2022/09/07 07:17:46;;;;;;;;;;;;;;;;;;5067711;28;20364;-55
2022/09/07 07:20:11;;;;;;;;;;;;;;;;;;5067713;28;20814;-57
2022/09/07 07:22:36;;;;;;;;;;;;;;;;;;5067200;28;19917;-57
2022/09/07 07:25:02;;;;;;;;;;;;;;;;;;5066648;28;19913;-53
2022/09/07 07:27:27;;;;;;;;;;;;;;;;;;5067224;28;19917;-57
2022/09/07 07:29:52;;;;;;;;;;;;;;;;;;5066124;28;19924;-56
2022/09/07 07:32:18;;;;;;;;;;;;;;;;;;5067785;28;20248;-54
2022/09/07 07:34:43;;;;;;;;;;;;;;;;;;5069056;28;19924;-57
2022/09/07 07:37:08;;;;;;;;;;;;;;;;;;5065421;28;19952;-57
2022/09/07 07:39:34;;;;;;;;;;;;;;;;;;5067565;28;19924;-57
2022/09/07 07:41:59;;;;;;;;;;;;;;;;;;5067239;28;19917;-55
2022/09/07 07:44:24;;;;;;;;;;;;;;;;;;5066422;28;19967;-56
2022/09/07 07:46:49;;;;;;;;;;;;;;;;;;5066380;28;20059;-57
2022/09/07 07:49:15;;;;;;;;;;;;;;;;;;5066240;28;19919;-56
2022/09/07 07:51:40;;;;;;;;;;;;;;;;;;5065227;28;19921;-57
2022/09/07 07:54:05;;;;;;;;;;;;;;;;;;5066809;28;20415;-55
2022/09/07 07:56:30;;;;;;;;;;;;;;;;;;5066938;28;20261;-55
2022/09/07 07:58:56;;;;;;;;;;;;;;;;;;5067127;28;20327;-58
2022/09/07 08:01:21;;;;;;;;;;;;;;;;;;5066678;28;20418;-55
2022/09/07 08:03:46;;;;;;;;;;;;;;;;;;5066407;28;19916;-57
2022/09/07 08:06:12;;;;;;;;;;;;;;;;;;5066193;28;20343;-57
2022/09/07 08:08:37;;;;;;;;;;;;;;;;;;5066794;28;20011;-56
2022/09/07 08:11:03;;;;;;;;;;;;;;;;;;5066747;28;19924;-57
2022/09/07 08:13:28;;;;;;;;;;;;;;;;;;5066753;28;20388;-58
2022/09/07 08:15:53;;;;;;;;;;;;;;;;;;5067018;28;20401;-58
2022/09/07 08:18:19;;;;;;;;;;;;;;;;;;5067058;28;19944;-57
2022/09/07 08:20:44;;;;;;;;;;;;;;;;;;5065517;28;19925;-58
2022/09/07 08:23:10;;;;;;;;;;;;;;;;;;5066204;28;20035;-56
2022/09/07 08:25:35;;;;;;;;;;;;;;;;;;5066425;28;19916;-56
2022/09/07 08:28:00;;;;;;;;;;;;;;;;;;5065357;28;20368;-58
2022/09/07 08:30:26;;;;;;;;;;;;;;;;;;5066215;28;20364;-57
2022/09/07 08:32:51;;;;;;;;;;;;;;;;;;5066788;28;20281;-57
2022/09/07 08:35:16;;;;;;;;;;;;;;;;;;5065867;28;20014;-56
2022/09/07 08:37:41;;;;;;;;;;;;;;;;;;5066502;28;19916;-58
2022/09/07 08:40:06;;;;;;;;;;;;;;;;;;5065416;28;19924;-58
2022/09/07 08:42:32;;;;;;;;;;;;;;;;;;5065374;28;19916;-59
2022/09/07 08:44:57;;;;;;;;;;;;;;;;;;5064945;28;19916;-57
2022/09/07 08:47:22;;;;;;;;;;;;;;;;;;5066489;28;19917;-57
2022/09/07 08:49:47;;;;;;;;;;;;;;;;;;5065261;28;19966;-58
2022/09/07 08:52:12;;;;;;;;;;;;;;;;;;5065811;28;20426;-57
2022/09/07 08:54:38;;;;;;;;;;;;;;;;;;5064274;28;19924;-58
2022/09/07 08:57:03;;;;;;;;;;;;;;;;;;5066716;28;19924;-57
2022/09/07 08:59:28;;;;;;;;;;;;;;;;;;5066156;28;20450;-58
2022/09/07 09:01:54;;;;;;;;;;;;;;;;;;5066704;28;20405;-57
2022/09/07 09:04:19;;;;;;;;;;;;;;;;;;5066197;28;19916;-58
2022/09/07 09:06:44;;;;;;;;;;;;;;;;;;5065936;28;19963;-56
2022/09/07 09:09:09;;;;;;;;;;;;;;;;;;5065680;28;19920;-58
2022/09/07 09:11:34;;;;;;;;;;;;;;;;;;5065608;28;20267;-55
2022/09/07 09:14:00;;;;;;;;;;;;;;;;;;5066205;28;19935;-57
2022/09/07 09:16:25;;;;;;;;;;;;;;;;;;5065665;28;20280;-54
2022/09/07 09:18:50;;;;;;;;;;;;;;;;;;5064700;28;19963;-57
2022/09/07 09:21:16;;;;;;;;;;;;;;;;;;5065487;28;19928;-57
2022/09/07 09:23:41;;;;;;;;;;;;;;;;;;5063984;28;19954;-57
2022/09/07 09:26:06;;;;;;;;;;;;;;;;;;5062175;28;19924;-58
2022/09/07 09:28:31;;;;;;;;;;;;;;;;;;5065628;28;19916;-58
2022/09/07 09:30:57;;;;;;;;;;;;;;;;;;5066655;28;20020;-57
2022/09/07 09:33:22;;;;;;;;;;;;;;;;;;5062590;28;19962;-58
2022/09/07 09:35:50;;;;;;;;;;;;;;;;;;5080681;28;19965;-59
2022/09/07 09:38:16;;;;;;;;;;;;;;;;;;5064976;28;19916;-57
2022/09/07 09:40:41;;;;;;;;;;;;;;;;;;5064733;28;19931;-57
2022/09/07 09:43:06;;;;;;;;;;;;;;;;;;5063562;28;20011;-58
2022/09/07 09:45:31;;;;;;;;;;;;;;;;;;5063299;28;19969;-58
2022/09/07 09:47:57;;;;;;;;;;;;;;;;;;5063288;28;19917;-58
2022/09/07 09:50:22;;;;;;;;;;;;;;;;;;5066599;28;19916;-58
2022/09/07 09:52:47;;;;;;;;;;;;;;;;;;5065159;28;19982;-58
2022/09/07 09:55:12;;;;;;;;;;;;;;;;;;5064406;28;19944;-59
2022/09/07 09:57:37;;;;;;;;;;;;;;;;;;5065036;28;19923;-58
2022/09/07 10:00:03;;;;;;;;;;;;;;;;;;5063674;28;19974;-58
2022/09/07 10:02:37;;;;;;;;;;;;;;;;;;5057770;28;20297;-58
2022/09/07 10:05:02;;;;;;;;;;;;;;;;;;5062626;28;20560;-59
2022/09/07 10:07:27;;;;;;;;;;;;;;;;;;5062306;28;19916;-58
2022/09/07 10:09:52;;;;;;;;;;;;;;;;;;5062521;28;19908;-58
2022/09/07 10:12:18;;;;;;;;;;;;;;;;;;5062773;28;19927;-59
2022/09/07 10:14:43;;;;;;;;;;;;;;;;;;5064181;28;19916;-58
2022/09/07 10:17:08;;;;;;;;;;;;;;;;;;5064534;28;19920;-58
2022/09/07 10:19:33;;;;;;;;;;;;;;;;;;5064270;28;20427;-59
2022/09/07 10:21:58;;;;;;;;;;;;;;;;;;5062017;28;20490;-58
2022/09/07 10:24:24;;;;;;;;;;;;;;;;;;5061622;28;20376;-58
2022/09/07 10:26:49;;;;;;;;;;;;;;;;;;5062796;28;19924;-59
2022/09/07 10:29:15;;;;;;;;;;;;;;;;;;5078586;28;19919;-58
2022/09/07 10:31:40;;;;;;;;;;;;;;;;;;5063799;28;20368;-58
2022/09/07 10:34:05;;;;;;;;;;;;;;;;;;5062811;28;19916;-59
2022/09/07 10:36:30;;;;;;;;;;;;;;;;;;5063259;28;20049;-58
2022/09/07 10:38:55;;;;;;;;;;;;;;;;;;5063839;28;20342;-58
2022/09/07 10:41:21;;;;;;;;;;;;;;;;;;5064426;28;19925;-58
2022/09/07 10:43:47;;;;;;;;;;;;;;;;;;5064721;28;19920;-59
2022/09/07 10:46:12;;;;;;;;;;;;;;;;;;5064419;28;19912;-60
2022/09/07 10:48:37;;;;;;;;;;;;;;;;;;5063028;28;19927;-58
2022/09/07 10:51:03;;;;;;;;;;;;;;;;;;5063335;28;19970;-57
2022/09/07 10:53:28;;;;;;;;;;;;;;;;;;5063406;28;19916;-57
2022/09/07 10:55:53;;;;;;;;;;;;;;;;;;5063064;28;20637;-57
2022/09/07 10:58:18;;;;;;;;;;;;;;;;;;5064484;28;19962;-57
2022/09/07 11:00:44;;;;;;;;;;;;;;;;;;5064086;28;19924;-59
2022/09/07 11:03:09;;;;;;;;;;;;;;;;;;5062826;28;20331;-58
2022/09/07 11:05:34;;;;;;;;;;;;;;;;;;5064228;28;19962;-59
2022/09/07 11:08:00;;;;;;;;;;;;;;;;;;5063543;28;19959;-57
2022/09/07 11:10:25;;;;;;;;;;;;;;;;;;5063040;28;20642;-58
2022/09/07 11:12:50;;;;;;;;;;;;;;;;;;5063633;28;19925;-58
2022/09/07 11:15:15;;;;;;;;;;;;;;;;;;5063040;28;20007;-58
2022/09/07 11:17:40;;;;;;;;;;;;;;;;;;5062987;28;20510;-58
2022/09/07 11:20:06;;;;;;;;;;;;;;;;;;5063379;28;19924;-58
2022/09/07 11:22:31;;;;;;;;;;;;;;;;;;5062456;28;20411;-58
2022/09/07 11:24:56;;;;;;;;;;;;;;;;;;5062813;28;20007;-61
2022/09/07 11:27:21;;;;;;;;;;;;;;;;;;5061792;28;19916;-58
2022/09/07 11:29:47;;;;;;;;;;;;;;;;;;5063030;28;20327;-58
2022/09/07 11:32:12;;;;;;;;;;;;;;;;;;5061382;28;20431;-61
2022/09/07 11:34:37;;;;;;;;;;;;;;;;;;5061783;28;19916;-59
2022/09/07 11:37:02;;;;;;;;;;;;;;;;;;5062971;28;19917;-59
2022/09/07 11:39:27;;;;;;;;;;;;;;;;;;5063915;28;20410;-58
2022/09/07 11:41:52;;;;;;;;;;;;;;;;;;5061144;28;20421;-58
2022/09/07 11:44:18;;;;;;;;;;;;;;;;;;5063412;28;19931;-59
2022/09/07 11:46:43;;;;;;;;;;;;;;;;;;5062885;28;19966;-58
2022/09/07 11:49:09;;;;;;;;;;;;;;;;;;5065259;28;19912;-59
2022/09/07 11:51:34;;;;;;;;;;;;;;;;;;5066786;28;19916;-60
2022/09/07 11:53:59;;;;;;;;;;;;;;;;;;5067393;28;19917;-58
2022/09/07 11:56:25;;;;;;;;;;;;;;;;;;5066141;28;19916;-58
2022/09/07 11:58:50;;;;;;;;;;;;;;;;;;5066571;28;20530;-59
2022/09/07 12:01:16;;;;;;;;;;;;;;;;;;5066044;28;20343;-59
2022/09/07 12:03:41;;;;;;;;;;;;;;;;;;5066152;28;19916;-59
2022/09/07 12:06:06;;;;;;;;;;;;;;;;;;5066808;28;20402;-59
2022/09/07 12:08:31;;;;;;;;;;;;;;;;;;5067420;28;20440;-59
2022/09/07 12:10:56;;;;;;;;;;;;;;;;;;5066106;28;19950;-59
2022/09/07 12:13:22;;;;;;;;;;;;;;;;;;5066380;28;19959;-59
2022/09/07 12:15:47;;;;;;;;;;;;;;;;;;5066002;28;19923;-59
2022/09/07 12:18:12;;;;;;;;;;;;;;;;;;5067039;28;19916;-59
2022/09/07 12:20:38;;;;;;;;;;;;;;;;;;5066765;28;19925;-59
2022/09/07 12:23:03;;;;;;;;;;;;;;;;;;5067016;28;20007;-59
2022/09/07 12:25:28;;;;;;;;;;;;;;;;;;5066799;28;19916;-59
2022/09/07 12:27:53;;;;;;;;;;;;;;;;;;5066700;28;19917;-59
2022/09/07 12:30:18;;;;;;;;;;;;;;;;;;5066302;28;19993;-59
2022/09/07 12:32:44;;;;;;;;;;;;;;;;;;5066241;28;19919;-59
2022/09/07 12:35:09;;;;;;;;;;;;;;;;;;5065675;28;20634;-58
2022/09/07 12:37:34;;;;;;;;;;;;;;;;;;5065926;28;20653;-60
2022/09/07 12:39:59;;;;;;;;;;;;;;;;;;5064111;28;19921;-59
2022/09/07 12:42:24;;;;;;;;;;;;;;;;;;5065263;28;19917;-59
2022/09/07 12:44:50;;;;;;;;;;;;;;;;;;5065529;28;19930;-60
2022/09/07 12:47:15;;;;;;;;;;;;;;;;;;5065851;28;20001;-59
2022/09/07 12:49:40;;;;;;;;;;;;;;;;;;5066906;28;20352;-60
2022/09/07 12:52:05;;;;;;;;;;;;;;;;;;5066487;28;19922;-60
2022/09/07 12:54:31;;;;;;;;;;;;;;;;;;5066227;28;20064;-59
2022/09/07 12:56:56;;;;;;;;;;;;;;;;;;5065497;28;20292;-57
2022/09/07 12:59:21;;;;;;;;;;;;;;;;;;5066530;28;20002;-58
2022/09/07 13:01:46;;;;;;;;;;;;;;;;;;5066706;28;19920;-58
2022/09/07 13:04:11;;;;;;;;;;;;;;;;;;5065135;28;19923;-58
2022/09/07 13:06:37;;;;;;;;;;;;;;;;;;5064108;28;20581;-58
2022/09/07 13:09:02;;;;;;;;;;;;;;;;;;5065417;28;20262;-58
2022/09/07 13:11:28;;;;;;;;;;;;;;;;;;5065755;28;20012;-58
2022/09/07 13:13:54;;;;;;;;;;;;;;;;;;5066160;28;20264;-58
2022/09/07 13:16:19;;;;;;;;;;;;;;;;;;5064869;28;19924;-58
2022/09/07 13:18:45;;;;;;;;;;;;;;;;;;5067222;28;20286;-58
2022/09/07 13:21:11;;;;;;;;;;;;;;;;;;5066500;28;20125;-58
2022/09/07 13:23:36;;;;;;;;;;;;;;;;;;5080117;28;20514;-58
2022/09/07 13:26:02;;;;;;;;;;;;;;;;;;5064295;28;20448;-58
2022/09/07 13:28:27;;;;;;;;;;;;;;;;;;5064578;28;19917;-59
2022/09/07 13:30:52;;;;;;;;;;;;;;;;;;5065313;28;19923;-59
2022/09/07 13:33:17;;;;;;;;;;;;;;;;;;5065383;28;19916;-60
2022/09/07 13:35:42;;;;;;;;;;;;;;;;;;5063137;28;19918;-60
2022/09/07 13:38:08;;;;;;;;;;;;;;;;;;5064612;28;19917;-59
2022/09/07 13:40:33;;;;;;;;;;;;;;;;;;5064464;28;19963;-59
2022/09/07 13:42:58;;;;;;;;;;;;;;;;;;5064773;28;20039;-59
2022/09/07 13:45:23;;;;;;;;;;;;;;;;;;5063943;28;19916;-60
2022/09/07 13:47:48;;;;;;;;;;;;;;;;;;5065137;28;19916;-59
2022/09/07 13:50:13;;;;;;;;;;;;;;;;;;5041537;28;19928;-60
2022/09/07 13:52:39;;;;;;;;;;;;;;;;;;5064988;28;20289;-60
2022/09/07 13:55:04;;;;;;;;;;;;;;;;;;5064505;28;19923;-60
2022/09/07 13:57:29;;;;;;;;;;;;;;;;;;5056353;28;19925;-59
2022/09/07 13:59:55;;;;;;;;;;;;;;;;;;5065226;28;19925;-60
2022/09/07 14:02:20;;;;;;;;;;;;;;;;;;5064622;28;19991;-59
2022/09/07 14:04:46;;;;;;;;;;;;;;;;;;5065487;28;20321;-57
2022/09/07 14:07:11;;;;;;;;;;;;;;;;;;5063193;28;20564;-57
2022/09/07 14:09:36;;;;;;;;;;;;;;;;;;5062825;28;19922;-58
2022/09/07 14:12:01;;;;;;;;;;;;;;;;;;5067095;28;19978;-59
2022/09/07 14:14:28;;;;;;;;;;;;;;;;;;5084008;28;20441;-59
2022/09/07 14:16:53;;;;;;;;;;;;;;;;;;5068528;28;19916;-59
2022/09/07 14:19:18;;;;;;;;;;;;;;;;;;5083427;28;19916;-59
2022/09/07 14:21:43;;;;;;;;;;;;;;;;;;5083677;28;19912;-59
2022/09/07 14:24:09;;;;;;;;;;;;;;;;;;5083218;28;20685;-59
2022/09/07 14:26:34;;;;;;;;;;;;;;;;;;5084108;28;20003;-58
2022/09/07 14:29:00;;;;;;;;;;;;;;;;;;5084115;28;19923;-59
2022/09/07 14:31:25;;;;;;;;;;;;;;;;;;5083785;28;19916;-59
2022/09/07 14:33:51;;;;;;;;;;;;;;;;;;5082398;28;19926;-60
2022/09/07 14:36:16;;;;;;;;;;;;;;;;;;5083222;28;19916;-59
2022/09/07 14:38:41;;;;;;;;;;;;;;;;;;5083878;28;20398;-59
2022/09/07 14:41:07;;;;;;;;;;;;;;;;;;5084524;28;19924;-59
2022/09/07 14:43:32;;;;;;;;;;;;;;;;;;5084406;28;19962;-59
2022/09/07 14:45:57;;;;;;;;;;;;;;;;;;5084382;28;19985;-59
2022/09/07 14:48:22;;;;;;;;;;;;;;;;;;5066216;28;19916;-60
2022/09/07 14:50:48;;;;;;;;;;;;;;;;;;5084068;28;19923;-59
2022/09/07 14:53:13;;;;;;;;;;;;;;;;;;5082245;28;20400;-59
2022/09/07 14:55:38;;;;;;;;;;;;;;;;;;5070471;28;20405;-60
2022/09/07 14:58:03;;;;;;;;;;;;;;;;;;5071883;28;19916;-56
2022/09/07 15:00:28;;;;;;;;;;;;;;;;;;5081760;28;19964;-57
2022/09/07 15:02:54;;;;;;;;;;;;;;;;;;5074647;28;19916;-57
2022/09/07 15:05:19;;;;;;;;;;;;;;;;;;5074700;28;20323;-58
2022/09/07 15:07:44;;;;;;;;;;;;;;;;;;5076213;28;20406;-57
2022/09/07 15:10:09;;;;;;;;;;;;;;;;;;5072693;28;20006;-58
2022/09/07 15:12:35;;;;;;;;;;;;;;;;;;5078292;28;20671;-59
2022/09/07 15:15:00;;;;;;;;;;;;;;;;;;5065180;28;20382;-58
2022/09/07 15:17:25;;;;;;;;;;;;;;;;;;5068177;28;19916;-58
2022/09/07 15:19:50;;;;;;;;;;;;;;;;;;5073280;28;20683;-59
2022/09/07 15:22:16;;;;;;;;;;;;;;;;;;5071899;28;20424;-59
2022/09/07 15:24:41;;;;;;;;;;;;;;;;;;5083315;28;20344;-59
2022/09/07 15:27:06;;;;;;;;;;;;;;;;;;5078653;28;20470;-60
2022/09/07 15:29:31;;;;;;;;;;;;;;;;;;5079191;28;20355;-59
2022/09/07 15:31:56;;;;;;;;;;;;;;;;;;5084336;28;20028;-59
2022/09/07 15:34:22;;;;;;;;;;;;;;;;;;5078001;28;19915;-58
2022/09/07 15:36:47;;;;;;;;;;;;;;;;;;5084826;28;20376;-58
2022/09/07 15:39:12;;;;;;;;;;;;;;;;;;5060411;28;20548;-60
2022/09/07 15:41:37;;;;;;;;;;;;;;;;;;5060083;28;20368;-60
2022/09/07 15:44:02;;;;;;;;;;;;;;;;;;5083743;28;20026;-59
2022/09/07 15:46:28;;;;;;;;;;;;;;;;;;5077719;28;19916;-58
2022/09/07 15:48:53;;;;;;;;;;;;;;;;;;5069095;28;19973;-58
2022/09/07 15:51:18;;;;;;;;;;;;;;;;;;5076440;28;19915;-59
2022/09/07 15:53:43;;;;;;;;;;;;;;;;;;5078750;28;20463;-59
2022/09/07 15:56:09;;;;;;;;;;;;;;;;;;5084482;28;19916;-58
2022/09/07 15:58:34;;;;;;;;;;;;;;;;;;5077629;28;19916;-58
2022/09/07 16:01:00;;;;;;;;;;;;;;;;;;5083895;28;20348;-59
2022/09/07 16:03:25;;;;;;;;;;;;;;;;;;5078026;28;19920;-58
2022/09/07 16:05:50;;;;;;;;;;;;;;;;;;5079250;28;19916;-58
2022/09/07 16:08:15;;;;;;;;;;;;;;;;;;5079665;28;19916;-59
2022/09/07 16:10:40;;;;;;;;;;;;;;;;;;5075077;28;20038;-58
2022/09/07 16:13:06;;;;;;;;;;;;;;;;;;5081013;28;19919;-58
2022/09/07 16:15:32;;;;;;;;;;;;;;;;;;5077415;28;20277;-58
2022/09/07 16:17:57;;;;;;;;;;;;;;;;;;5075971;28;19916;-58
2022/09/07 16:20:22;;;;;;;;;;;;;;;;;;5081450;28;19981;-58
2022/09/07 16:22:47;;;;;;;;;;;;;;;;;;5075374;28;20041;-58
2022/09/07 16:25:13;;;;;;;;;;;;;;;;;;5077151;28;20683;-58
2022/09/07 16:27:38;;;;;;;;;;;;;;;;;;5071664;28;19915;-58
2022/09/07 16:30:03;;;;;;;;;;;;;;;;;;5073724;28;20260;-59
2022/09/07 16:32:28;;;;;;;;;;;;;;;;;;5084478;28;20359;-58